sensor_id;sensor_type;location;lat;lon;timestamp;P1;durP1;ratioP1;P2;durP2;ratioP2
5718;SDS011;2884;47.734;9.244;2022-12-29T00:01:58;3.73;;;2.37;;
5718;SDS011;2884;47.734;9.244;2022-12-29T00:04:24;3.03;;;2.70;;
5718;SDS011;2884;47.734;9.244;2022-12-29T00:06:50;3.17;;;2.60;;
5718;SDS011;2884;47.734;9.244;2022-12-29T00:09:17;2.65;;;2.45;;
5718;SDS011;2884;47.734;9.244;2022-12-29T00:11:43;2.53;;;2.33;;
5718;SDS011;2884;47.734;9.244;2022-12-29T00:14:09;3.43;;;2.50;;
5718;SDS011;2884;47.734;9.244;2022-12-29T00:16:53;6.55;;;2.83;;
5718;SDS011;2884;47.734;9.244;2022-12-29T00:19:19;3.47;;;2.87;;
5718;SDS011;2884;47.734;9.244;2022-12-29T00:22:05;3.45;;;2.58;;
5718;SDS011;2884;47.734;9.244;2022-12-29T00:24:49;5.40;;;4.05;;
5718;SDS011;2884;47.734;9.244;2022-12-29T00:27:30;11.32;;;7.18;;
5718;SDS011;2884;47.734;9.244;2022-12-29T00:30:17;3.40;;;2.70;;
5718;SDS011;2884;47.734;9.244;2022-12-29T00:33:10;7.28;;;3.20;;
5718;SDS011;2884;47.734;9.244;2022-12-29T00:36:09;2.88;;;2.65;;
5718;SDS011;2884;47.734;9.244;2022-12-29T00:38:39;3.60;;;3.25;;
5718;SDS011;2884;47.734;9.244;2022-12-29T00:41:24;9.45;;;3.75;;
5718;SDS011;2884;47.734;9.244;2022-12-29T00:44:10;3.97;;;3.20;;
5718;SDS011;2884;47.734;9.244;2022-12-29T00:46:37;6.82;;;4.35;;
5718;SDS011;2884;47.734;9.244;2022-12-29T00:49:03;4.35;;;3.40;;
5718;SDS011;2884;47.734;9.244;2022-12-29T00:51:49;4.15;;;3.17;;
5718;SDS011;2884;47.734;9.244;2022-12-29T00:54:15;5.72;;;4.07;;
5718;SDS011;2884;47.734;9.244;2022-12-29T00:56:40;5.90;;;3.30;;
5718;SDS011;2884;47.734;9.244;2022-12-29T00:59:08;5.93;;;3.70;;
5718;SDS011;2884;47.734;9.244;2022-12-29T01:01:35;5.18;;;3.80;;
5718;SDS011;2884;47.734;9.244;2022-12-29T01:04:01;2.60;;;2.40;;
5718;SDS011;2884;47.734;9.244;2022-12-29T01:06:28;3.38;;;3.00;;
5718;SDS011;2884;47.734;9.244;2022-12-29T01:08:53;3.70;;;2.90;;
5718;SDS011;2884;47.734;9.244;2022-12-29T01:11:38;5.22;;;3.22;;
5718;SDS011;2884;47.734;9.244;2022-12-29T01:14:04;6.63;;;3.22;;
5718;SDS011;2884;47.734;9.244;2022-12-29T01:16:30;3.22;;;2.92;;
5718;SDS011;2884;47.734;9.244;2022-12-29T01:18:56;3.93;;;3.13;;
5718;SDS011;2884;47.734;9.244;2022-12-29T01:21:21;4.20;;;3.00;;
5718;SDS011;2884;47.734;9.244;2022-12-29T01:23:47;3.47;;;3.10;;
5718;SDS011;2884;47.734;9.244;2022-12-29T01:26:14;3.20;;;2.80;;
5718;SDS011;2884;47.734;9.244;2022-12-29T01:28:40;4.82;;;3.58;;
5718;SDS011;2884;47.734;9.244;2022-12-29T01:31:10;6.10;;;3.72;;
5718;SDS011;2884;47.734;9.244;2022-12-29T01:33:38;3.30;;;3.00;;
5718;SDS011;2884;47.734;9.244;2022-12-29T01:36:04;3.40;;;3.10;;
5718;SDS011;2884;47.734;9.244;2022-12-29T01:38:32;4.15;;;3.45;;
5718;SDS011;2884;47.734;9.244;2022-12-29T01:40:58;3.58;;;3.17;;
5718;SDS011;2884;47.734;9.244;2022-12-29T01:43:41;3.17;;;2.70;;
5718;SDS011;2884;47.734;9.244;2022-12-29T01:49:16;3.17;;;2.88;;
5718;SDS011;2884;47.734;9.244;2022-12-29T01:51:45;3.25;;;2.38;;
5718;SDS011;2884;47.734;9.244;2022-12-29T01:54:16;5.60;;;3.10;;
5718;SDS011;2884;47.734;9.244;2022-12-29T01:56:45;3.30;;;2.97;;
5718;SDS011;2884;47.734;9.244;2022-12-29T01:59:12;2.70;;;2.50;;
5718;SDS011;2884;47.734;9.244;2022-12-29T02:01:41;2.33;;;2.20;;
5718;SDS011;2884;47.734;9.244;2022-12-29T02:04:08;2.65;;;2.30;;
5718;SDS011;2884;47.734;9.244;2022-12-29T02:06:38;2.90;;;2.60;;
5718;SDS011;2884;47.734;9.244;2022-12-29T02:09:07;3.08;;;2.67;;
5718;SDS011;2884;47.734;9.244;2022-12-29T02:11:35;3.50;;;2.70;;
5718;SDS011;2884;47.734;9.244;2022-12-29T02:14:04;4.20;;;2.30;;
5718;SDS011;2884;47.734;9.244;2022-12-29T02:27:01;2.17;;;1.63;;
5718;SDS011;2884;47.734;9.244;2022-12-29T02:35:23;2.03;;;1.35;;
5718;SDS011;2884;47.734;9.244;2022-12-29T02:38:12;1.10;;;1.00;;
5718;SDS011;2884;47.734;9.244;2022-12-29T02:49:22;1.30;;;1.20;;
5718;SDS011;2884;47.734;9.244;2022-12-29T02:54:18;1.47;;;1.03;;
5718;SDS011;2884;47.734;9.244;2022-12-29T02:57:02;2.30;;;1.07;;
5718;SDS011;2884;47.734;9.244;2022-12-29T02:59:28;1.40;;;0.80;;
5718;SDS011;2884;47.734;9.244;2022-12-29T03:04:46;1.17;;;1.07;;
5718;SDS011;2884;47.734;9.244;2022-12-29T03:07:21;1.90;;;0.90;;
5718;SDS011;2884;47.734;9.244;2022-12-29T03:09:52;1.20;;;0.97;;
5718;SDS011;2884;47.734;9.244;2022-12-29T03:12:42;1.90;;;1.23;;
5718;SDS011;2884;47.734;9.244;2022-12-29T03:15:34;0.93;;;0.93;;
5718;SDS011;2884;47.734;9.244;2022-12-29T03:18:25;1.93;;;1.00;;
5718;SDS011;2884;47.734;9.244;2022-12-29T03:21:22;4.87;;;1.40;;
5718;SDS011;2884;47.734;9.244;2022-12-29T03:24:15;8.63;;;1.30;;
5718;SDS011;2884;47.734;9.244;2022-12-29T03:26:43;1.63;;;0.97;;
5718;SDS011;2884;47.734;9.244;2022-12-29T03:29:11;1.50;;;1.13;;
5718;SDS011;2884;47.734;9.244;2022-12-29T03:31:37;1.00;;;0.90;;
5718;SDS011;2884;47.734;9.244;2022-12-29T03:34:04;1.73;;;1.20;;
5718;SDS011;2884;47.734;9.244;2022-12-29T03:36:32;1.20;;;1.10;;
5718;SDS011;2884;47.734;9.244;2022-12-29T03:39:11;1.80;;;1.00;;
5718;SDS011;2884;47.734;9.244;2022-12-29T03:41:37;1.10;;;1.10;;
5718;SDS011;2884;47.734;9.244;2022-12-29T03:44:06;2.40;;;1.33;;
5718;SDS011;2884;47.734;9.244;2022-12-29T03:46:32;1.80;;;1.20;;
5718;SDS011;2884;47.734;9.244;2022-12-29T03:48:57;2.00;;;1.53;;
5718;SDS011;2884;47.734;9.244;2022-12-29T03:51:23;1.57;;;1.00;;
5718;SDS011;2884;47.734;9.244;2022-12-29T03:53:48;2.87;;;1.00;;
5718;SDS011;2884;47.734;9.244;2022-12-29T03:56:14;2.53;;;1.10;;
5718;SDS011;2884;47.734;9.244;2022-12-29T03:58:40;1.37;;;1.27;;
5718;SDS011;2884;47.734;9.244;2022-12-29T04:01:05;2.57;;;1.13;;
5718;SDS011;2884;47.734;9.244;2022-12-29T04:03:30;3.67;;;1.57;;
5718;SDS011;2884;47.734;9.244;2022-12-29T04:05:56;1.10;;;1.10;;
5718;SDS011;2884;47.734;9.244;2022-12-29T04:08:22;1.43;;;1.27;;
5718;SDS011;2884;47.734;9.244;2022-12-29T04:10:48;1.67;;;1.10;;
5718;SDS011;2884;47.734;9.244;2022-12-29T04:13:14;1.33;;;1.20;;
5718;SDS011;2884;47.734;9.244;2022-12-29T04:15:39;3.10;;;1.17;;
5718;SDS011;2884;47.734;9.244;2022-12-29T04:18:06;1.57;;;1.30;;
5718;SDS011;2884;47.734;9.244;2022-12-29T04:20:32;1.10;;;1.00;;
5718;SDS011;2884;47.734;9.244;2022-12-29T04:23:16;1.30;;;1.10;;
5718;SDS011;2884;47.734;9.244;2022-12-29T04:25:44;1.50;;;1.23;;
5718;SDS011;2884;47.734;9.244;2022-12-29T04:28:10;2.20;;;1.03;;
5718;SDS011;2884;47.734;9.244;2022-12-29T04:30:35;1.50;;;1.40;;
5718;SDS011;2884;47.734;9.244;2022-12-29T04:33:01;4.80;;;1.73;;
5718;SDS011;2884;47.734;9.244;2022-12-29T04:35:26;1.13;;;1.10;;
5718;SDS011;2884;47.734;9.244;2022-12-29T04:37:52;2.47;;;1.00;;
5718;SDS011;2884;47.734;9.244;2022-12-29T04:40:18;1.20;;;1.10;;
5718;SDS011;2884;47.734;9.244;2022-12-29T04:42:43;1.73;;;1.10;;
5718;SDS011;2884;47.734;9.244;2022-12-29T04:45:09;1.80;;;1.00;;
5718;SDS011;2884;47.734;9.244;2022-12-29T04:47:35;2.10;;;0.90;;
5718;SDS011;2884;47.734;9.244;2022-12-29T04:50:00;1.40;;;1.07;;
5718;SDS011;2884;47.734;9.244;2022-12-29T04:52:26;2.20;;;1.37;;
5718;SDS011;2884;47.734;9.244;2022-12-29T04:54:51;1.67;;;1.00;;
5718;SDS011;2884;47.734;9.244;2022-12-29T04:57:17;1.40;;;1.30;;
5718;SDS011;2884;47.734;9.244;2022-12-29T04:59:42;2.20;;;1.13;;
5718;SDS011;2884;47.734;9.244;2022-12-29T05:02:08;3.20;;;1.43;;
5718;SDS011;2884;47.734;9.244;2022-12-29T05:04:34;2.03;;;1.20;;
5718;SDS011;2884;47.734;9.244;2022-12-29T05:06:59;3.50;;;1.30;;
5718;SDS011;2884;47.734;9.244;2022-12-29T05:09:25;1.20;;;1.10;;
5718;SDS011;2884;47.734;9.244;2022-12-29T05:11:50;4.00;;;1.57;;
5718;SDS011;2884;47.734;9.244;2022-12-29T05:14:16;2.90;;;1.30;;
5718;SDS011;2884;47.734;9.244;2022-12-29T05:16:41;3.30;;;1.20;;
5718;SDS011;2884;47.734;9.244;2022-12-29T05:19:07;4.10;;;1.20;;
5718;SDS011;2884;47.734;9.244;2022-12-29T05:21:32;1.00;;;0.90;;
5718;SDS011;2884;47.734;9.244;2022-12-29T05:23:58;2.80;;;0.93;;
5718;SDS011;2884;47.734;9.244;2022-12-29T05:26:24;3.93;;;1.10;;
5718;SDS011;2884;47.734;9.244;2022-12-29T05:28:51;2.20;;;0.90;;
5718;SDS011;2884;47.734;9.244;2022-12-29T05:31:16;1.90;;;1.30;;
5718;SDS011;2884;47.734;9.244;2022-12-29T05:33:42;1.47;;;1.10;;
5718;SDS011;2884;47.734;9.244;2022-12-29T05:36:08;1.20;;;0.80;;
5718;SDS011;2884;47.734;9.244;2022-12-29T05:38:34;3.93;;;1.30;;
5718;SDS011;2884;47.734;9.244;2022-12-29T05:41:00;2.63;;;0.97;;
5718;SDS011;2884;47.734;9.244;2022-12-29T05:43:28;4.67;;;0.90;;
5718;SDS011;2884;47.734;9.244;2022-12-29T05:45:54;1.17;;;1.07;;
5718;SDS011;2884;47.734;9.244;2022-12-29T05:48:20;1.23;;;1.10;;
5718;SDS011;2884;47.734;9.244;2022-12-29T05:50:49;1.77;;;1.37;;
5718;SDS011;2884;47.734;9.244;2022-12-29T05:53:15;1.37;;;1.27;;
5718;SDS011;2884;47.734;9.244;2022-12-29T05:55:41;1.77;;;1.20;;
5718;SDS011;2884;47.734;9.244;2022-12-29T05:58:07;2.27;;;1.33;;
5718;SDS011;2884;47.734;9.244;2022-12-29T06:00:33;2.03;;;1.30;;
5718;SDS011;2884;47.734;9.244;2022-12-29T06:02:58;1.07;;;0.97;;
5718;SDS011;2884;47.734;9.244;2022-12-29T06:05:27;4.40;;;1.00;;
5718;SDS011;2884;47.734;9.244;2022-12-29T06:07:52;0.80;;;0.80;;
5718;SDS011;2884;47.734;9.244;2022-12-29T06:10:18;2.37;;;1.10;;
5718;SDS011;2884;47.734;9.244;2022-12-29T06:12:46;2.93;;;1.23;;
5718;SDS011;2884;47.734;9.244;2022-12-29T06:15:12;2.37;;;1.53;;
5718;SDS011;2884;47.734;9.244;2022-12-29T06:17:38;1.50;;;1.40;;
5718;SDS011;2884;47.734;9.244;2022-12-29T06:20:04;2.30;;;1.17;;
5718;SDS011;2884;47.734;9.244;2022-12-29T06:22:30;1.33;;;1.23;;
5718;SDS011;2884;47.734;9.244;2022-12-29T06:24:58;0.80;;;0.80;;
5718;SDS011;2884;47.734;9.244;2022-12-29T06:27:24;1.23;;;0.83;;
5718;SDS011;2884;47.734;9.244;2022-12-29T06:29:52;2.07;;;1.03;;
5718;SDS011;2884;47.734;9.244;2022-12-29T06:32:18;2.03;;;1.30;;
5718;SDS011;2884;47.734;9.244;2022-12-29T06:34:44;1.33;;;1.03;;
5718;SDS011;2884;47.734;9.244;2022-12-29T06:37:10;2.93;;;1.03;;
5718;SDS011;2884;47.734;9.244;2022-12-29T06:39:39;1.47;;;1.37;;
5718;SDS011;2884;47.734;9.244;2022-12-29T06:42:04;2.80;;;1.47;;
5718;SDS011;2884;47.734;9.244;2022-12-29T06:44:30;5.30;;;0.77;;
5718;SDS011;2884;47.734;9.244;2022-12-29T06:46:55;5.53;;;1.40;;
5718;SDS011;2884;47.734;9.244;2022-12-29T06:49:26;3.10;;;1.60;;
5718;SDS011;2884;47.734;9.244;2022-12-29T06:51:51;5.10;;;2.07;;
5718;SDS011;2884;47.734;9.244;2022-12-29T06:54:17;2.20;;;1.40;;
5718;SDS011;2884;47.734;9.244;2022-12-29T06:56:42;2.30;;;1.60;;
5718;SDS011;2884;47.734;9.244;2022-12-29T06:59:09;4.13;;;1.27;;
5718;SDS011;2884;47.734;9.244;2022-12-29T07:01:35;6.77;;;1.43;;
5718;SDS011;2884;47.734;9.244;2022-12-29T07:04:01;2.30;;;1.60;;
5718;SDS011;2884;47.734;9.244;2022-12-29T07:06:28;1.73;;;1.00;;
5718;SDS011;2884;47.734;9.244;2022-12-29T07:08:53;2.17;;;1.13;;
5718;SDS011;2884;47.734;9.244;2022-12-29T07:11:20;1.53;;;1.27;;
5718;SDS011;2884;47.734;9.244;2022-12-29T07:13:46;9.13;;;1.57;;
5718;SDS011;2884;47.734;9.244;2022-12-29T07:16:12;6.00;;;2.00;;
5718;SDS011;2884;47.734;9.244;2022-12-29T07:18:37;1.40;;;1.30;;
5718;SDS011;2884;47.734;9.244;2022-12-29T07:21:03;2.70;;;1.57;;
5718;SDS011;2884;47.734;9.244;2022-12-29T07:23:29;6.20;;;1.40;;
5718;SDS011;2884;47.734;9.244;2022-12-29T07:25:58;2.90;;;1.33;;
5718;SDS011;2884;47.734;9.244;2022-12-29T07:28:25;2.60;;;1.60;;
5718;SDS011;2884;47.734;9.244;2022-12-29T07:30:50;1.93;;;1.40;;
5718;SDS011;2884;47.734;9.244;2022-12-29T07:33:16;1.43;;;1.33;;
5718;SDS011;2884;47.734;9.244;2022-12-29T07:35:42;2.30;;;1.30;;
5718;SDS011;2884;47.734;9.244;2022-12-29T07:38:07;2.60;;;1.87;;
5718;SDS011;2884;47.734;9.244;2022-12-29T07:40:33;1.43;;;1.17;;
5718;SDS011;2884;47.734;9.244;2022-12-29T07:42:58;2.83;;;1.70;;
5718;SDS011;2884;47.734;9.244;2022-12-29T07:45:26;6.10;;;1.67;;
5718;SDS011;2884;47.734;9.244;2022-12-29T07:47:51;6.10;;;1.40;;
5718;SDS011;2884;47.734;9.244;2022-12-29T07:50:17;1.60;;;1.50;;
5718;SDS011;2884;47.734;9.244;2022-12-29T07:52:42;4.67;;;1.60;;
5718;SDS011;2884;47.734;9.244;2022-12-29T07:55:08;2.30;;;1.47;;
5718;SDS011;2884;47.734;9.244;2022-12-29T07:57:34;3.60;;;1.80;;
5718;SDS011;2884;47.734;9.244;2022-12-29T08:00:02;2.00;;;1.60;;
5718;SDS011;2884;47.734;9.244;2022-12-29T08:02:29;4.13;;;1.20;;
5718;SDS011;2884;47.734;9.244;2022-12-29T08:04:54;2.50;;;1.53;;
5718;SDS011;2884;47.734;9.244;2022-12-29T08:07:23;3.33;;;1.50;;
5718;SDS011;2884;47.734;9.244;2022-12-29T08:09:49;3.93;;;1.90;;
5718;SDS011;2884;47.734;9.244;2022-12-29T08:12:14;2.40;;;1.40;;
5718;SDS011;2884;47.734;9.244;2022-12-29T08:14:40;3.40;;;1.63;;
5718;SDS011;2884;47.734;9.244;2022-12-29T08:17:06;2.20;;;1.50;;
5718;SDS011;2884;47.734;9.244;2022-12-29T08:19:31;1.97;;;1.60;;
5718;SDS011;2884;47.734;9.244;2022-12-29T08:21:57;4.93;;;1.77;;
5718;SDS011;2884;47.734;9.244;2022-12-29T08:24:22;3.37;;;2.30;;
5718;SDS011;2884;47.734;9.244;2022-12-29T08:26:48;4.10;;;2.00;;
5718;SDS011;2884;47.734;9.244;2022-12-29T08:29:13;2.77;;;1.67;;
5718;SDS011;2884;47.734;9.244;2022-12-29T08:31:41;3.30;;;1.80;;
5718;SDS011;2884;47.734;9.244;2022-12-29T08:34:06;4.80;;;2.43;;
5718;SDS011;2884;47.734;9.244;2022-12-29T08:36:32;4.47;;;3.23;;
5718;SDS011;2884;47.734;9.244;2022-12-29T08:38:58;3.63;;;2.80;;
5718;SDS011;2884;47.734;9.244;2022-12-29T08:41:23;5.33;;;3.73;;
5718;SDS011;2884;47.734;9.244;2022-12-29T08:43:49;6.90;;;2.80;;
5718;SDS011;2884;47.734;9.244;2022-12-29T08:46:15;5.27;;;2.67;;
5718;SDS011;2884;47.734;9.244;2022-12-29T08:48:41;4.73;;;3.00;;
5718;SDS011;2884;47.734;9.244;2022-12-29T08:51:07;4.10;;;2.83;;
5718;SDS011;2884;47.734;9.244;2022-12-29T08:53:33;5.73;;;2.90;;
5718;SDS011;2884;47.734;9.244;2022-12-29T08:55:59;4.60;;;3.10;;
5718;SDS011;2884;47.734;9.244;2022-12-29T08:58:25;6.83;;;3.07;;
5718;SDS011;2884;47.734;9.244;2022-12-29T09:00:55;4.77;;;2.80;;
5718;SDS011;2884;47.734;9.244;2022-12-29T09:03:21;4.60;;;3.00;;
5718;SDS011;2884;47.734;9.244;2022-12-29T09:05:51;3.43;;;2.50;;
5718;SDS011;2884;47.734;9.244;2022-12-29T09:08:17;4.20;;;2.00;;
5718;SDS011;2884;47.734;9.244;2022-12-29T09:10:43;4.30;;;3.07;;
5718;SDS011;2884;47.734;9.244;2022-12-29T09:13:09;3.20;;;2.23;;
5718;SDS011;2884;47.734;9.244;2022-12-29T09:15:38;3.73;;;2.60;;
5718;SDS011;2884;47.734;9.244;2022-12-29T09:18:04;3.30;;;2.60;;
5718;SDS011;2884;47.734;9.244;2022-12-29T09:20:30;4.17;;;2.47;;
5718;SDS011;2884;47.734;9.244;2022-12-29T09:23:02;8.20;;;3.30;;
5718;SDS011;2884;47.734;9.244;2022-12-29T09:25:28;6.93;;;3.20;;
5718;SDS011;2884;47.734;9.244;2022-12-29T09:27:54;5.10;;;3.40;;
5718;SDS011;2884;47.734;9.244;2022-12-29T09:30:21;3.50;;;2.60;;
5718;SDS011;2884;47.734;9.244;2022-12-29T09:32:47;4.63;;;2.83;;
5718;SDS011;2884;47.734;9.244;2022-12-29T09:35:16;2.43;;;2.23;;
5718;SDS011;2884;47.734;9.244;2022-12-29T09:37:42;4.40;;;2.50;;
5718;SDS011;2884;47.734;9.244;2022-12-29T09:40:28;3.20;;;2.07;;
5718;SDS011;2884;47.734;9.244;2022-12-29T09:43:10;4.73;;;1.63;;
5718;SDS011;2884;47.734;9.244;2022-12-29T09:48:48;3.40;;;2.47;;
5718;SDS011;2884;47.734;9.244;2022-12-29T09:51:21;5.03;;;2.33;;
5718;SDS011;2884;47.734;9.244;2022-12-29T09:53:53;3.27;;;2.03;;
5718;SDS011;2884;47.734;9.244;2022-12-29T09:56:23;4.73;;;1.93;;
5718;SDS011;2884;47.734;9.244;2022-12-29T10:01:46;2.03;;;1.10;;
5718;SDS011;2884;47.734;9.244;2022-12-29T10:04:18;4.73;;;1.87;;
5718;SDS011;2884;47.734;9.244;2022-12-29T10:15:33;2.47;;;1.70;;
5718;SDS011;2884;47.734;9.244;2022-12-29T10:23:50;3.27;;;2.00;;
5718;SDS011;2884;47.734;9.244;2022-12-29T10:26:18;2.10;;;1.67;;
5718;SDS011;2884;47.734;9.244;2022-12-29T10:28:50;2.50;;;1.73;;
5718;SDS011;2884;47.734;9.244;2022-12-29T10:31:20;3.73;;;2.10;;
5718;SDS011;2884;47.734;9.244;2022-12-29T10:33:57;6.63;;;1.87;;
5718;SDS011;2884;47.734;9.244;2022-12-29T10:36:31;1.80;;;1.20;;
5718;SDS011;2884;47.734;9.244;2022-12-29T10:39:10;2.70;;;1.40;;
5718;SDS011;2884;47.734;9.244;2022-12-29T10:41:57;2.00;;;1.47;;
5718;SDS011;2884;47.734;9.244;2022-12-29T10:44:29;1.47;;;1.00;;
5718;SDS011;2884;47.734;9.244;2022-12-29T10:47:00;1.87;;;1.43;;
5718;SDS011;2884;47.734;9.244;2022-12-29T10:49:30;2.30;;;1.73;;
5718;SDS011;2884;47.734;9.244;2022-12-29T10:51:57;4.87;;;1.50;;
5718;SDS011;2884;47.734;9.244;2022-12-29T10:54:36;3.03;;;1.10;;
5718;SDS011;2884;47.734;9.244;2022-12-29T11:00:00;4.63;;;1.10;;
5718;SDS011;2884;47.734;9.244;2022-12-29T11:02:37;2.37;;;2.20;;
5718;SDS011;2884;47.734;9.244;2022-12-29T11:07:37;3.50;;;1.30;;
5718;SDS011;2884;47.734;9.244;2022-12-29T11:12:54;1.40;;;1.20;;
5718;SDS011;2884;47.734;9.244;2022-12-29T11:15:40;1.37;;;0.90;;
5718;SDS011;2884;47.734;9.244;2022-12-29T11:18:23;2.40;;;1.37;;
5718;SDS011;2884;47.734;9.244;2022-12-29T11:20:54;5.17;;;1.27;;
5718;SDS011;2884;47.734;9.244;2022-12-29T11:28:30;1.40;;;1.30;;
5718;SDS011;2884;47.734;9.244;2022-12-29T11:31:01;1.50;;;1.40;;
5718;SDS011;2884;47.734;9.244;2022-12-29T11:33:28;1.70;;;1.60;;
5718;SDS011;2884;47.734;9.244;2022-12-29T11:35:58;1.37;;;1.27;;
5718;SDS011;2884;47.734;9.244;2022-12-29T11:38:28;2.50;;;1.30;;
5718;SDS011;2884;47.734;9.244;2022-12-29T11:41:02;9.37;;;3.77;;
5718;SDS011;2884;47.734;9.244;2022-12-29T11:43:33;1.63;;;1.33;;
5718;SDS011;2884;47.734;9.244;2022-12-29T11:46:00;3.13;;;1.83;;
5718;SDS011;2884;47.734;9.244;2022-12-29T11:48:29;5.30;;;1.97;;
5718;SDS011;2884;47.734;9.244;2022-12-29T11:50:58;2.90;;;1.70;;
5718;SDS011;2884;47.734;9.244;2022-12-29T11:53:41;5.63;;;1.83;;
5718;SDS011;2884;47.734;9.244;2022-12-29T11:56:10;5.37;;;2.40;;
5718;SDS011;2884;47.734;9.244;2022-12-29T11:58:37;2.63;;;1.60;;
5718;SDS011;2884;47.734;9.244;2022-12-29T12:06:22;2.60;;;1.73;;
5718;SDS011;2884;47.734;9.244;2022-12-29T12:08:56;2.10;;;1.67;;
5718;SDS011;2884;47.734;9.244;2022-12-29T12:11:32;2.50;;;1.63;;
5718;SDS011;2884;47.734;9.244;2022-12-29T12:17:09;3.07;;;1.30;;
5718;SDS011;2884;47.734;9.244;2022-12-29T12:19:59;2.20;;;1.10;;
5718;SDS011;2884;47.734;9.244;2022-12-29T12:27:57;4.60;;;1.77;;
5718;SDS011;2884;47.734;9.244;2022-12-29T12:30:36;5.30;;;1.73;;
5718;SDS011;2884;47.734;9.244;2022-12-29T12:33:11;7.73;;;1.40;;
5718;SDS011;2884;47.734;9.244;2022-12-29T12:50:06;5.27;;;1.90;;
5718;SDS011;2884;47.734;9.244;2022-12-29T12:58:32;2.70;;;1.27;;
5718;SDS011;2884;47.734;9.244;2022-12-29T13:03:49;2.13;;;1.20;;
5718;SDS011;2884;47.734;9.244;2022-12-29T13:18:50;3.10;;;1.20;;
5718;SDS011;2884;47.734;9.244;2022-12-29T13:23:54;1.90;;;1.60;;
5718;SDS011;2884;47.734;9.244;2022-12-29T13:26:23;2.67;;;1.30;;
5718;SDS011;2884;47.734;9.244;2022-12-29T13:29:03;2.73;;;1.63;;
5718;SDS011;2884;47.734;9.244;2022-12-29T13:34:43;2.83;;;1.30;;
5718;SDS011;2884;47.734;9.244;2022-12-29T13:37:22;1.00;;;1.00;;
5718;SDS011;2884;47.734;9.244;2022-12-29T13:39:52;1.50;;;1.20;;
5718;SDS011;2884;47.734;9.244;2022-12-29T13:42:21;5.17;;;1.20;;
5718;SDS011;2884;47.734;9.244;2022-12-29T13:44:48;2.43;;;1.93;;
5718;SDS011;2884;47.734;9.244;2022-12-29T13:49:52;4.80;;;1.60;;
5718;SDS011;2884;47.734;9.244;2022-12-29T13:52:24;5.00;;;1.27;;
5718;SDS011;2884;47.734;9.244;2022-12-29T13:55:01;4.73;;;1.40;;
5718;SDS011;2884;47.734;9.244;2022-12-29T14:00:20;4.83;;;1.40;;
5718;SDS011;2884;47.734;9.244;2022-12-29T14:05:41;8.43;;;1.30;;
5718;SDS011;2884;47.734;9.244;2022-12-29T14:08:14;1.30;;;1.20;;
5718;SDS011;2884;47.734;9.244;2022-12-29T14:10:48;2.90;;;1.97;;
5718;SDS011;2884;47.734;9.244;2022-12-29T14:15:43;1.40;;;1.10;;
5718;SDS011;2884;47.734;9.244;2022-12-29T14:18:17;2.53;;;1.60;;
5718;SDS011;2884;47.734;9.244;2022-12-29T14:23:37;1.93;;;1.50;;
5718;SDS011;2884;47.734;9.244;2022-12-29T14:28:34;2.60;;;1.50;;
5718;SDS011;2884;47.734;9.244;2022-12-29T14:33:39;5.47;;;1.80;;
5718;SDS011;2884;47.734;9.244;2022-12-29T14:42:06;1.70;;;1.37;;
5718;SDS011;2884;47.734;9.244;2022-12-29T14:44:45;3.73;;;1.93;;
5718;SDS011;2884;47.734;9.244;2022-12-29T14:47:11;6.57;;;1.90;;
5718;SDS011;2884;47.734;9.244;2022-12-29T14:49:43;1.63;;;1.03;;
5718;SDS011;2884;47.734;9.244;2022-12-29T14:52:14;3.57;;;1.40;;
5718;SDS011;2884;47.734;9.244;2022-12-29T14:55:28;4.77;;;1.10;;
5718;SDS011;2884;47.734;9.244;2022-12-29T14:57:38;9.30;;;1.40;;
5718;SDS011;2884;47.734;9.244;2022-12-29T15:00:07;2.10;;;1.50;;
5718;SDS011;2884;47.734;9.244;2022-12-29T15:02:40;1.50;;;1.07;;
5718;SDS011;2884;47.734;9.244;2022-12-29T15:08:23;2.63;;;1.33;;
5718;SDS011;2884;47.734;9.244;2022-12-29T15:13:24;2.10;;;1.70;;
5718;SDS011;2884;47.734;9.244;2022-12-29T15:15:57;2.80;;;1.60;;
5718;SDS011;2884;47.734;9.244;2022-12-29T15:18:28;5.63;;;1.57;;
5718;SDS011;2884;47.734;9.244;2022-12-29T15:21:04;2.77;;;1.57;;
5718;SDS011;2884;47.734;9.244;2022-12-29T15:23:31;3.30;;;1.40;;
5718;SDS011;2884;47.734;9.244;2022-12-29T15:25:59;1.27;;;1.10;;
5718;SDS011;2884;47.734;9.244;2022-12-29T15:28:42;5.07;;;1.40;;
5718;SDS011;2884;47.734;9.244;2022-12-29T15:31:16;3.90;;;1.60;;
5718;SDS011;2884;47.734;9.244;2022-12-29T15:33:44;3.60;;;1.20;;
5718;SDS011;2884;47.734;9.244;2022-12-29T15:36:22;2.30;;;1.70;;
5718;SDS011;2884;47.734;9.244;2022-12-29T15:38:50;8.43;;;2.10;;
5718;SDS011;2884;47.734;9.244;2022-12-29T15:44:08;4.07;;;2.90;;
5718;SDS011;2884;47.734;9.244;2022-12-29T15:46:39;4.07;;;1.37;;
5718;SDS011;2884;47.734;9.244;2022-12-29T15:49:07;1.73;;;1.40;;
5718;SDS011;2884;47.734;9.244;2022-12-29T15:51:35;7.97;;;1.40;;
5718;SDS011;2884;47.734;9.244;2022-12-29T15:54:02;2.30;;;1.53;;
5718;SDS011;2884;47.734;9.244;2022-12-29T15:56:29;2.70;;;1.57;;
5718;SDS011;2884;47.734;9.244;2022-12-29T15:58:55;6.03;;;2.00;;
5718;SDS011;2884;47.734;9.244;2022-12-29T16:01:30;3.33;;;2.03;;
5718;SDS011;2884;47.734;9.244;2022-12-29T16:04:02;4.77;;;2.60;;
5718;SDS011;2884;47.734;9.244;2022-12-29T16:06:34;5.20;;;2.33;;
5718;SDS011;2884;47.734;9.244;2022-12-29T16:09:18;5.10;;;2.20;;
5718;SDS011;2884;47.734;9.244;2022-12-29T16:11:55;2.10;;;1.77;;
5718;SDS011;2884;47.734;9.244;2022-12-29T16:14:41;4.20;;;1.70;;
5718;SDS011;2884;47.734;9.244;2022-12-29T16:17:10;5.53;;;1.67;;
5718;SDS011;2884;47.734;9.244;2022-12-29T16:19:41;3.73;;;1.70;;
5718;SDS011;2884;47.734;9.244;2022-12-29T16:22:11;2.27;;;1.60;;
5718;SDS011;2884;47.734;9.244;2022-12-29T16:24:38;5.07;;;2.03;;
5718;SDS011;2884;47.734;9.244;2022-12-29T16:29:48;3.73;;;1.70;;
5718;SDS011;2884;47.734;9.244;2022-12-29T16:32:44;4.40;;;1.80;;
5718;SDS011;2884;47.734;9.244;2022-12-29T16:35:11;2.20;;;2.00;;
5718;SDS011;2884;47.734;9.244;2022-12-29T16:37:39;3.57;;;1.20;;
5718;SDS011;2884;47.734;9.244;2022-12-29T16:47:58;2.20;;;1.30;;
5718;SDS011;2884;47.734;9.244;2022-12-29T16:51:00;5.27;;;1.70;;
5718;SDS011;2884;47.734;9.244;2022-12-29T16:53:35;2.87;;;1.60;;
5718;SDS011;2884;47.734;9.244;2022-12-29T16:56:45;1.87;;;1.43;;
5718;SDS011;2884;47.734;9.244;2022-12-29T17:01:34;2.20;;;1.20;;
5718;SDS011;2884;47.734;9.244;2022-12-29T17:04:04;1.93;;;1.43;;
5718;SDS011;2884;47.734;9.244;2022-12-29T17:06:31;2.60;;;1.60;;
5718;SDS011;2884;47.734;9.244;2022-12-29T17:08:56;1.60;;;1.40;;
5718;SDS011;2884;47.734;9.244;2022-12-29T17:17:00;4.13;;;1.47;;
5718;SDS011;2884;47.734;9.244;2022-12-29T17:19:31;4.10;;;1.53;;
5718;SDS011;2884;47.734;9.244;2022-12-29T17:21:58;4.17;;;1.60;;
5718;SDS011;2884;47.734;9.244;2022-12-29T17:24:24;3.50;;;2.30;;
5718;SDS011;2884;47.734;9.244;2022-12-29T17:26:50;4.90;;;2.23;;
5718;SDS011;2884;47.734;9.244;2022-12-29T17:29:39;3.03;;;1.90;;
5718;SDS011;2884;47.734;9.244;2022-12-29T17:32:05;1.63;;;1.53;;
5718;SDS011;2884;47.734;9.244;2022-12-29T17:34:32;2.90;;;1.50;;
5718;SDS011;2884;47.734;9.244;2022-12-29T17:36:58;3.30;;;1.90;;
5718;SDS011;2884;47.734;9.244;2022-12-29T17:39:23;2.27;;;1.80;;
5718;SDS011;2884;47.734;9.244;2022-12-29T17:41:49;3.00;;;1.47;;
5718;SDS011;2884;47.734;9.244;2022-12-29T17:44:18;1.70;;;1.43;;
5718;SDS011;2884;47.734;9.244;2022-12-29T17:46:45;2.40;;;1.40;;
5718;SDS011;2884;47.734;9.244;2022-12-29T17:49:12;1.90;;;1.57;;
5718;SDS011;2884;47.734;9.244;2022-12-29T17:51:39;1.57;;;1.47;;
5718;SDS011;2884;47.734;9.244;2022-12-29T17:54:08;3.27;;;1.57;;
5718;SDS011;2884;47.734;9.244;2022-12-29T17:56:45;1.40;;;1.13;;
5718;SDS011;2884;47.734;9.244;2022-12-29T17:59:11;5.67;;;1.60;;
5718;SDS011;2884;47.734;9.244;2022-12-29T18:01:38;3.13;;;1.40;;
5718;SDS011;2884;47.734;9.244;2022-12-29T18:04:04;4.03;;;1.57;;
5718;SDS011;2884;47.734;9.244;2022-12-29T18:06:30;2.63;;;1.37;;
5718;SDS011;2884;47.734;9.244;2022-12-29T18:08:55;2.57;;;1.40;;
5718;SDS011;2884;47.734;9.244;2022-12-29T18:11:22;2.67;;;1.50;;
5718;SDS011;2884;47.734;9.244;2022-12-29T18:13:51;3.03;;;1.63;;
5718;SDS011;2884;47.734;9.244;2022-12-29T18:16:17;3.10;;;1.30;;
5718;SDS011;2884;47.734;9.244;2022-12-29T18:18:43;2.73;;;2.13;;
5718;SDS011;2884;47.734;9.244;2022-12-29T18:21:13;1.80;;;1.70;;
5718;SDS011;2884;47.734;9.244;2022-12-29T18:23:41;1.30;;;1.10;;
5718;SDS011;2884;47.734;9.244;2022-12-29T18:26:06;1.20;;;1.10;;